createdAt,value
2023-03-19T00:00:49.493Z,33.09
2023-03-19T00:03:57.034Z,33.23
2023-03-19T00:07:03.715Z,33.53
2023-03-19T00:10:11.583Z,33.64
2023-03-19T00:13:17.692Z,33.70
2023-03-19T00:16:27.596Z,33.95
2023-03-19T00:19:33.794Z,34.10
2023-03-19T00:22:40.557Z,34.10
2023-03-19T00:25:46.594Z,34.04
2023-03-19T00:28:53.272Z,34.14
2023-03-19T00:32:02.513Z,34.04
2023-03-19T00:35:11.477Z,33.56
2023-03-19T00:38:18.460Z,33.28
2023-03-19T00:41:25.321Z,33.34
2023-03-19T00:44:31.358Z,33.69
2023-03-19T00:47:40.893Z,33.79
2023-03-19T00:50:46.998Z,34.16
2023-03-19T00:53:55.322Z,34.36
2023-03-19T00:57:01.389Z,34.45
2023-03-19T01:00:10.942Z,34.81
2023-03-19T01:03:19.285Z,35.38
2023-03-19T01:06:27.983Z,35.60
2023-03-19T01:09:36.048Z,35.83
2023-03-19T01:12:42.844Z,35.82
2023-03-19T01:15:48.849Z,36.15
2023-03-19T01:18:58.661Z,36.67
2023-03-19T01:22:04.635Z,37.02
2023-03-19T01:25:16.300Z,37.20
2023-03-19T01:28:32.026Z,37.02
2023-03-19T01:31:40.165Z,37.36
2023-03-19T01:35:17.864Z,37.19
2023-03-19T01:38:25.595Z,37.42
2023-03-19T01:41:33.533Z,36.71
2023-03-19T01:45:00.652Z,35.67
2023-03-19T01:48:38.570Z,35.05
2023-03-19T01:51:57.149Z,34.95
2023-03-19T01:55:29.280Z,34.75
2023-03-19T01:59:09.854Z,34.76
2023-03-19T02:02:33.306Z,35.08
2023-03-19T02:05:53.185Z,35.41
2023-03-19T02:09:03.199Z,35.07
2023-03-19T02:12:12.679Z,35.31
2023-03-19T02:15:19.109Z,35.73
2023-03-19T02:18:28.384Z,35.77
2023-03-19T02:21:35.516Z,36.00
2023-03-19T02:24:56.861Z,36.38
2023-03-19T02:28:06.428Z,36.34
2023-03-19T02:31:14.754Z,36.53
2023-03-19T02:34:41.005Z,36.87
2023-03-19T02:37:51.289Z,37.17
2023-03-19T02:41:04.842Z,37.27
2023-03-19T02:44:17.469Z,37.55
2023-03-19T02:47:23.558Z,37.81
2023-03-19T02:50:30.772Z,38.07
2023-03-19T02:53:37.246Z,37.33
2023-03-19T02:56:43.984Z,37.45
2023-03-19T02:59:52.603Z,37.01
2023-03-19T03:03:01.630Z,37.05
2023-03-19T03:06:07.982Z,37.80
2023-03-19T03:09:17.278Z,37.65
2023-03-19T03:12:23.191Z,37.11
2023-03-19T03:15:32.660Z,37.32
2023-03-19T03:18:38.405Z,38.23
2023-03-19T03:21:48.263Z,37.91
2023-03-19T03:24:54.108Z,37.98
2023-03-19T03:28:00.751Z,38.28
2023-03-19T03:31:09.790Z,39.47
2023-03-19T03:34:19.198Z,40.29
2023-03-19T03:37:24.973Z,39.39
2023-03-19T03:40:31.838Z,39.29
2023-03-19T03:43:37.513Z,40.36
2023-03-19T03:46:46.805Z,40.66
2023-03-19T03:49:52.623Z,39.92
2023-03-19T03:52:59.452Z,40.74
2023-03-19T03:56:05.327Z,40.25
2023-03-19T03:59:12.575Z,41.41
2023-03-19T04:02:21.081Z,41.27
2023-03-19T04:05:28.153Z,41.56
2023-03-19T04:08:34.209Z,41.54
2023-03-19T04:11:42.253Z,41.42
2023-03-19T04:14:48.303Z,41.09
2023-03-19T04:17:57.854Z,41.39
2023-03-19T04:21:03.821Z,41.05
2023-03-19T04:24:11.763Z,40.83
2023-03-19T04:27:18.136Z,40.34
2023-03-19T04:30:25.006Z,41.06
2023-03-19T04:33:34.355Z,41.91
2023-03-19T04:36:41.554Z,41.51
2023-03-19T04:39:47.532Z,41.82
2023-03-19T04:42:55.011Z,41.79
2023-03-19T04:46:19.864Z,41.54
2023-03-19T04:49:29.198Z,41.41
2023-03-19T04:52:35.481Z,41.26
2023-03-19T04:55:43.049Z,42.49
2023-03-19T04:58:55.411Z,42.39
2023-03-19T05:02:02.152Z,42.76
2023-03-19T05:05:13.616Z,42.64
2023-03-19T05:08:20.515Z,42.71
2023-03-19T05:11:26.356Z,42.58
2023-03-19T05:14:42.651Z,42.44
2023-03-19T05:17:58.541Z,42.76
2023-03-19T05:21:27.043Z,42.52
2023-03-19T05:24:33.565Z,42.41
2023-03-19T05:27:41.084Z,42.41
2023-03-19T05:30:49.690Z,43.01
2023-03-19T05:34:06.157Z,43.42
2023-03-19T05:37:18.458Z,43.40
2023-03-19T05:40:32.864Z,43.63
2023-03-19T05:43:43.647Z,43.41
2023-03-19T05:46:59.478Z,43.42
2023-03-19T05:50:10.613Z,43.49
2023-03-19T05:53:20.796Z,43.54
2023-03-19T05:56:43.258Z,43.37
2023-03-19T06:00:10.760Z,43.24
2023-03-19T06:03:16.895Z,42.98
2023-03-19T06:06:31.909Z,42.88
2023-03-19T06:09:41.267Z,43.10
2023-03-19T06:12:51.696Z,43.00
2023-03-19T06:16:00.229Z,42.98
2023-03-19T06:19:11.842Z,42.83
2023-03-19T06:22:18.032Z,42.84
2023-03-19T06:25:27.735Z,42.76
2023-03-19T06:28:33.640Z,42.46
2023-03-19T06:31:41.906Z,42.30
2023-03-19T06:35:00.636Z,42.32
2023-03-19T06:38:07.552Z,42.30
2023-03-19T06:41:16.483Z,41.23
2023-03-19T06:44:25.350Z,39.67
2023-03-19T06:47:31.220Z,38.34
2023-03-19T06:50:37.800Z,37.19
2023-03-19T06:53:43.729Z,36.21
2023-03-19T06:56:55.280Z,34.97
2023-03-19T07:00:01.203Z,33.39
2023-03-19T07:03:07.878Z,32.91
2023-03-19T07:06:13.718Z,32.24
2023-03-19T07:09:20.590Z,31.33
2023-03-19T07:12:29.432Z,31.33
2023-03-19T07:15:36.840Z,31.74
2023-03-19T07:18:42.606Z,31.30
2023-03-19T07:21:58.088Z,31.73
2023-03-19T07:25:07.371Z,31.32
2023-03-19T07:28:18.100Z,31.02
2023-03-19T07:31:23.941Z,31.33
2023-03-19T07:34:30.773Z,30.89
2023-03-19T07:37:37.271Z,31.15
2023-03-19T07:40:54.924Z,29.72
2023-03-19T07:44:07.833Z,30.13
2023-03-19T07:47:27.944Z,28.71
2023-03-19T07:50:35.140Z,28.57
2023-03-19T07:53:41.921Z,28.11
2023-03-19T07:56:47.817Z,26.61
2023-03-19T07:59:57.375Z,26.25
2023-03-19T08:03:03.707Z,25.94
2023-03-19T08:06:10.445Z,25.47
2023-03-19T08:09:17.120Z,24.20
2023-03-19T08:12:23.790Z,24.21
2023-03-19T08:15:32.214Z,23.24
2023-03-19T08:18:42.004Z,23.28
2023-03-19T08:21:47.875Z,23.59
2023-03-19T08:24:54.450Z,23.63
2023-03-19T08:28:00.915Z,23.48
2023-03-19T08:31:17.261Z,23.73
2023-03-19T08:34:26.260Z,22.96
2023-03-19T08:37:32.991Z,23.99
2023-03-19T08:40:38.775Z,22.91
2023-03-19T08:43:45.458Z,22.11
2023-03-19T08:46:53.880Z,21.82
2023-03-19T08:50:17.904Z,22.25
2023-03-19T08:53:28.090Z,22.53
2023-03-19T08:56:35.095Z,22.22
2023-03-19T08:59:43.070Z,22.63
2023-03-19T09:02:53.865Z,22.41
2023-03-19T09:06:04.376Z,22.04
2023-03-19T09:09:13.493Z,22.16
2023-03-19T09:12:29.212Z,22.59
2023-03-19T09:15:38.066Z,23.34
2023-03-19T09:18:49.167Z,24.06
2023-03-19T09:21:58.651Z,23.15
2023-03-19T09:25:04.448Z,23.41
2023-03-19T09:28:11.098Z,23.83
2023-03-19T09:31:17.212Z,22.92
2023-03-19T09:34:26.777Z,21.91
2023-03-19T09:37:32.686Z,20.25
2023-03-19T09:40:46.774Z,20.02
2023-03-19T09:44:04.901Z,19.97
2023-03-19T09:47:31.512Z,18.87
2023-03-19T09:50:39.995Z,19.28
2023-03-19T09:53:59.759Z,19.42
2023-03-19T09:57:07.856Z,19.71
2023-03-19T10:00:40.170Z,18.89
2023-03-19T10:04:32.441Z,19.52
2023-03-19T10:08:40.149Z,20.70
2023-03-19T10:12:33.975Z,19.88
2023-03-19T10:15:50.237Z,19.65
2023-03-19T10:19:04.664Z,19.08
2023-03-19T10:22:22.532Z,19.44
2023-03-19T10:25:42.583Z,19.31
2023-03-19T10:29:10.559Z,19.24
2023-03-19T10:32:23.385Z,17.75
2023-03-19T10:35:47.207Z,18.25
2023-03-19T10:38:53.585Z,16.43
2023-03-19T10:42:38.975Z,15.12
2023-03-19T10:45:44.875Z,15.46
2023-03-19T10:48:52.594Z,15.70
2023-03-19T10:52:01.490Z,16.48
2023-03-19T10:55:18.971Z,15.54
2023-03-19T10:58:31.712Z,15.84
2023-03-19T11:01:42.430Z,14.98
2023-03-19T11:04:49.249Z,14.71
2023-03-19T11:08:04.918Z,14.63
2023-03-19T11:11:26.402Z,15.05
2023-03-19T11:14:43.958Z,14.15
2023-03-19T11:17:52.376Z,14.84
2023-03-19T11:21:03.162Z,14.65
2023-03-19T11:24:16.668Z,13.48
2023-03-19T11:27:32.485Z,13.85
2023-03-19T11:30:59.061Z,13.67
2023-03-19T11:34:30.640Z,13.62
2023-03-19T11:37:56.967Z,14.05
2023-03-19T11:41:21.879Z,13.92
2023-03-19T11:44:43.702Z,13.95
2023-03-19T11:48:15.731Z,14.82
2023-03-19T11:51:31.267Z,13.13
2023-03-19T11:54:54.698Z,13.18
2023-03-19T11:58:38.256Z,13.63
2023-03-19T12:02:42.326Z,15.08
2023-03-19T12:06:02.162Z,14.10
2023-03-19T12:09:25.626Z,14.00
2023-03-19T12:12:44.467Z,14.42
2023-03-19T12:16:09.249Z,14.67
2023-03-19T12:19:47.286Z,14.23
2023-03-19T12:23:14.226Z,14.41
2023-03-19T12:26:35.420Z,13.97
2023-03-19T12:30:00.459Z,13.96
2023-03-19T12:33:25.246Z,14.22
2023-03-19T12:36:39.597Z,14.55
2023-03-19T12:40:08.217Z,14.11
2023-03-19T12:43:28.957Z,15.17
2023-03-19T12:46:42.325Z,12.96
2023-03-19T12:49:59.825Z,13.48
2023-03-19T12:53:14.730Z,13.48
2023-03-19T12:56:39.450Z,12.98
2023-03-19T12:59:56.442Z,13.16
2023-03-19T13:03:16.039Z,13.37
2023-03-19T13:06:31.058Z,14.26
2023-03-19T13:09:50.911Z,13.64
2023-03-19T13:13:11.657Z,13.60
2023-03-19T13:16:38.124Z,13.92
2023-03-19T13:19:54.218Z,15.20
2023-03-19T13:23:09.733Z,15.38
2023-03-19T13:26:21.759Z,14.83
2023-03-19T13:29:36.973Z,15.35
2023-03-19T13:32:48.818Z,16.06
2023-03-19T13:35:58.818Z,15.51
2023-03-19T13:39:05.637Z,15.21
2023-03-19T13:42:42.383Z,15.82
2023-03-19T13:46:06.759Z,15.91
2023-03-19T13:49:36.806Z,17.08
2023-03-19T13:52:57.154Z,17.34
2023-03-19T13:56:15.990Z,16.42
2023-03-19T13:59:32.267Z,15.81
2023-03-19T14:02:59.055Z,16.43
2023-03-19T14:06:06.281Z,16.62
2023-03-19T14:09:45.420Z,16.26
2023-03-19T14:12:53.363Z,16.20
2023-03-19T14:16:14.791Z,16.75
2023-03-19T14:19:24.725Z,16.04
2023-03-19T14:22:41.736Z,17.49
2023-03-19T14:26:06.503Z,17.15
2023-03-19T14:29:20.078Z,17.15
2023-03-19T14:32:40.936Z,18.00
2023-03-19T14:35:53.410Z,17.87
2023-03-19T14:39:22.020Z,18.93
2023-03-19T14:42:39.601Z,18.32
2023-03-19T14:46:04.233Z,18.60
2023-03-19T14:50:02.285Z,19.92
2023-03-19T14:53:20.972Z,20.01
2023-03-19T14:56:35.153Z,19.82
2023-03-19T14:59:43.686Z,21.05
2023-03-19T15:02:55.737Z,20.30
2023-03-19T15:06:09.437Z,21.88
2023-03-19T15:09:32.623Z,21.24
2023-03-19T15:13:17.317Z,20.54
2023-03-19T15:16:40.834Z,19.87
2023-03-19T15:19:46.983Z,20.09
2023-03-19T15:22:58.856Z,20.79
2023-03-19T15:26:11.827Z,19.55
2023-03-19T15:29:19.087Z,20.25
2023-03-19T15:36:20.312Z,21.28
2023-03-19T15:39:32.542Z,21.91
2023-03-19T15:42:45.730Z,22.64
2023-03-19T15:45:59.030Z,22.22
2023-03-19T15:49:24.437Z,22.38
2023-03-19T15:52:43.410Z,22.99
2023-03-19T15:56:01.826Z,22.89
2023-03-19T15:59:13.625Z,22.97
2023-03-19T16:02:33.085Z,23.68
2023-03-19T16:05:45.539Z,23.70
2023-03-19T16:08:56.868Z,25.24
2023-03-19T16:12:04.772Z,25.46
2023-03-19T16:15:40.102Z,26.28
2023-03-19T16:18:55.904Z,26.56
2023-03-19T16:22:06.896Z,26.83
2023-03-19T16:25:22.489Z,27.07
2023-03-19T16:28:36.043Z,27.05
2023-03-19T16:31:56.006Z,27.27
2023-03-19T16:35:20.087Z,27.11
2023-03-19T16:38:28.627Z,26.85
2023-03-19T16:41:38.706Z,27.63
2023-03-19T16:44:53.979Z,27.39
2023-03-19T16:48:06.290Z,27.46
2023-03-19T16:51:19.152Z,28.67
2023-03-19T16:54:30.997Z,28.59
2023-03-19T16:57:41.582Z,28.82
2023-03-19T17:00:52.320Z,29.27
2023-03-19T17:04:03.898Z,29.94
2023-03-19T17:07:12.171Z,29.90
2023-03-19T17:10:25.990Z,30.00
2023-03-19T17:13:43.664Z,30.83
2023-03-19T17:16:51.834Z,31.01
2023-03-19T17:20:04.533Z,31.70
2023-03-19T17:23:15.452Z,31.62
2023-03-19T17:26:28.111Z,32.30
2023-03-19T17:29:39.428Z,31.20
2023-03-19T17:32:56.163Z,31.58
2023-03-19T17:36:05.345Z,31.98
2023-03-19T17:39:17.445Z,32.33
2023-03-19T17:42:30.361Z,33.47
2023-03-19T17:45:37.128Z,33.90
2023-03-19T17:48:43.182Z,33.91
2023-03-19T17:51:54.873Z,33.90
2023-03-19T17:55:12.472Z,33.32
2023-03-19T17:58:22.660Z,33.47
2023-03-19T18:01:33.633Z,33.99
2023-03-19T18:04:45.213Z,34.16
2023-03-19T18:08:00.156Z,34.03
2023-03-19T18:11:06.774Z,34.15
2023-03-19T18:14:14.836Z,34.42
2023-03-19T18:17:22.760Z,34.60
2023-03-19T18:20:37.002Z,35.01
2023-03-19T18:23:50.288Z,35.05
2023-03-19T18:27:02.484Z,35.71
2023-03-19T18:30:11.860Z,35.46
2023-03-19T18:33:30.385Z,35.27
2023-03-19T18:36:39.004Z,35.45
2023-03-19T18:39:50.347Z,34.01
2023-03-19T18:42:59.691Z,35.38
2023-03-19T18:46:09.275Z,33.67
2023-03-19T18:49:27.108Z,34.06
2023-03-19T18:52:38.658Z,36.07
2023-03-19T18:55:53.777Z,36.08
2023-03-19T18:59:07.866Z,34.91
2023-03-19T19:02:38.102Z,35.82
2023-03-19T19:05:45.297Z,34.39
2023-03-19T19:08:55.989Z,34.75
2023-03-19T19:12:09.596Z,35.85
2023-03-19T19:15:26.866Z,36.41
2023-03-19T19:18:35.903Z,36.56
2023-03-19T19:21:44.781Z,36.09
2023-03-19T19:24:53.377Z,36.65
2023-03-19T19:28:08.141Z,35.58
2023-03-19T19:31:28.110Z,36.33
2023-03-19T19:34:35.171Z,36.83
2023-03-19T19:37:41.189Z,37.49
2023-03-19T19:40:55.607Z,37.27
2023-03-19T19:44:07.364Z,37.64
2023-03-19T19:47:18.637Z,37.25
2023-03-19T19:50:31.293Z,37.61
2023-03-19T19:53:40.415Z,36.92
2023-03-19T19:56:47.194Z,37.15
2023-03-19T20:00:00.944Z,37.91
2023-03-19T20:03:25.255Z,37.52
2023-03-19T20:06:34.807Z,37.34
2023-03-19T20:09:40.753Z,37.45
2023-03-19T20:12:54.832Z,36.79
2023-03-19T20:16:05.547Z,37.12
2023-03-19T20:19:21.413Z,36.74
2023-03-19T20:22:27.493Z,35.59
2023-03-19T20:25:37.811Z,35.84
2023-03-19T20:28:46.856Z,34.71
2023-03-19T20:31:58.748Z,33.84
2023-03-19T20:35:18.254Z,33.45
2023-03-19T20:38:27.306Z,33.98
2023-03-19T20:41:36.144Z,33.47
2023-03-19T20:44:43.295Z,33.79
2023-03-19T20:47:58.828Z,34.53
2023-03-19T20:51:06.545Z,33.94
2023-03-19T20:54:13.661Z,34.40
2023-03-19T20:57:30.822Z,34.44
2023-03-19T21:00:43.216Z,34.28
2023-03-19T21:03:53.421Z,34.01
2023-03-19T21:06:59.313Z,34.05
2023-03-19T21:10:23.562Z,34.34
2023-03-19T21:13:29.848Z,34.58
2023-03-19T21:16:36.541Z,34.53
2023-03-19T21:19:45.062Z,34.56
2023-03-19T21:23:00.337Z,34.70
2023-03-19T21:26:22.086Z,34.71
2023-03-19T21:29:36.777Z,34.70
2023-03-19T21:32:45.812Z,35.14
2023-03-19T21:35:57.947Z,35.08
2023-03-19T21:39:05.746Z,35.17
2023-03-19T21:42:20.694Z,35.60
2023-03-19T21:45:33.939Z,35.30
2023-03-19T21:48:43.677Z,35.40
2023-03-19T21:51:52.665Z,35.25
2023-03-19T21:54:59.141Z,35.41
2023-03-19T21:58:05.042Z,35.78
2023-03-19T22:01:20.808Z,35.60
2023-03-19T22:04:26.858Z,36.20
2023-03-19T22:07:36.488Z,35.96
2023-03-19T22:10:42.614Z,36.15
2023-03-19T22:13:50.819Z,36.40
2023-03-19T22:17:02.225Z,36.16
2023-03-19T22:20:16.623Z,36.25
2023-03-19T22:23:25.583Z,36.35
2023-03-19T22:26:38.581Z,36.32
2023-03-19T22:29:44.843Z,36.32
2023-03-19T22:32:53.599Z,36.41
2023-03-19T22:35:59.669Z,36.29
2023-03-19T22:39:08.980Z,36.14
2023-03-19T22:42:14.919Z,36.63
2023-03-19T22:45:28.551Z,36.52
2023-03-19T22:48:34.496Z,36.36
2023-03-19T22:51:41.092Z,36.54
2023-03-19T22:54:53.130Z,36.39
2023-03-19T22:57:59.805Z,36.54
2023-03-19T23:01:05.781Z,36.48
2023-03-19T23:04:23.548Z,36.66
2023-03-19T23:07:29.369Z,36.46
2023-03-19T23:10:39.895Z,36.26
2023-03-19T23:13:46.016Z,36.58
2023-03-19T23:16:53.280Z,36.51
2023-03-19T23:19:59.091Z,36.16
2023-03-19T23:23:07.796Z,36.44
2023-03-19T23:26:30.742Z,36.35
2023-03-19T23:29:44.988Z,36.64
2023-03-19T23:32:51.324Z,36.65
2023-03-19T23:35:59.524Z,36.88
2023-03-19T23:39:05.393Z,36.62
2023-03-19T23:42:31.735Z,36.99
2023-03-19T23:45:44.693Z,37.05
2023-03-19T23:48:51.785Z,36.97
2023-03-19T23:51:59.134Z,37.15
2023-03-19T23:55:05.747Z,37.07
2023-03-19T23:58:14.312Z,37.28
